Time;durP1;ratioP1;P1;durP2;ratioP2;P2;SDS_P1;SDS_P2;PMS_P1;PMS_P2;Temp;Humidity;BMP_temperature;BMP_pressure;BME280_temperature;BME280_humidity;BME280_pressure;Samples;Min_cycle;Max_cycle;Signal;HPM_P1;HPM_P2
2022/07/15 00:00:17;;;;;;;4.05;1.80;;;18.80;58.30;;;;;;5113424;28;20039;-72
2022/07/15 00:02:43;;;;;;;7.53;1.65;;;18.70;58.60;;;;;;5113522;28;20437;-72
2022/07/15 00:05:09;;;;;;;4.38;1.90;;;18.70;58.60;;;;;;5113547;28;20026;-72
2022/07/15 00:07:35;;;;;;;4.18;1.45;;;18.60;58.70;;;;;;5113543;28;20020;-72
2022/07/15 00:10:14;;;;;;;4.70;1.73;;;18.60;58.70;;;;;;5113469;28;20024;-72
2022/07/15 00:12:44;;;;;;;3.33;1.80;;;18.50;58.80;;;;;;5095650;28;20047;-72
2022/07/15 00:15:10;;;;;;;2.55;1.60;;;18.50;58.90;;;;;;5113675;28;20031;-72
2022/07/15 00:17:36;;;;;;;4.68;1.65;;;18.40;59.10;;;;;;5113399;28;20031;-72
2022/07/15 00:20:02;;;;;;;3.40;1.50;;;18.50;59.10;;;;;;5113568;28;20111;-72
2022/07/15 00:22:28;;;;;;;4.63;1.60;;;18.50;59.00;;;;;;5113462;28;20028;-72
2022/07/15 00:24:53;;;;;;;3.40;1.60;;;18.40;59.30;;;;;;5113346;28;20077;-72
2022/07/15 00:27:19;;;;;;;4.07;1.67;;;18.30;59.30;;;;;;5113375;28;20043;-72
2022/07/15 00:29:45;;;;;;;5.28;1.80;;;18.20;59.30;;;;;;5113260;28;20475;-72
2022/07/15 00:32:10;;;;;;;3.80;1.58;;;18.20;59.70;;;;;;5113298;28;20040;-72
2022/07/15 00:34:36;;;;;;;2.83;1.48;;;18.20;59.20;;;;;;5113271;28;20043;-72
2022/07/15 00:37:02;;;;;;;4.07;1.73;;;18.10;59.40;;;;;;5113282;28;20016;-72
2022/07/15 00:39:28;;;;;;;4.07;1.50;;;18.10;59.60;;;;;;5113255;28;20028;-72
2022/07/15 00:41:54;;;;;;;3.60;1.60;;;18.00;60.00;;;;;;5113118;28;20024;-72
2022/07/15 00:44:20;;;;;;;5.30;1.58;;;18.00;59.70;;;;;;5095340;28;20036;-72
2022/07/15 00:46:45;;;;;;;5.00;1.67;;;17.90;59.60;;;;;;5113200;28;20035;-72
2022/07/15 00:49:11;;;;;;;2.50;1.60;;;17.90;59.70;;;;;;5113173;28;20044;-72
2022/07/15 00:51:41;;;;;;;3.47;1.55;;;17.90;59.90;;;;;;5113098;28;20394;-72
2022/07/15 00:54:10;;;;;;;5.75;1.58;;;17.90;59.90;;;;;;5113191;28;20016;-72
2022/07/15 00:56:39;;;;;;;3.58;1.63;;;17.80;60.20;;;;;;5116663;28;20016;-71
2022/07/15 00:59:06;;;;;;;5.20;1.83;;;17.70;60.40;;;;;;5116843;28;20020;-72
2022/07/15 01:01:35;;;;;;;5.03;1.60;;;17.70;60.40;;;;;;5116634;28;20082;-72
2022/07/15 01:04:03;;;;;;;3.30;1.48;;;17.70;60.50;;;;;;5116814;28;20023;-72
2022/07/15 01:06:29;;;;;;;5.47;1.85;;;17.70;60.60;;;;;;5116733;28;20019;-72
2022/07/15 01:08:54;;;;;;;7.97;1.80;;;17.60;60.60;;;;;;5116709;28;20024;-72
2022/07/15 01:11:20;;;;;;;4.07;1.73;;;17.60;61.70;;;;;;5116685;28;20047;-72
2022/07/15 01:13:46;;;;;;;4.00;1.85;;;17.60;60.70;;;;;;5098913;28;20395;-72
2022/07/15 01:16:12;;;;;;;4.00;1.58;;;17.50;60.70;;;;;;5098806;28;20562;-72
2022/07/15 01:18:38;;;;;;;4.38;1.52;;;17.50;60.80;;;;;;5116674;28;20024;-72
2022/07/15 01:21:03;;;;;;;6.65;2.13;;;17.40;61.10;;;;;;5116411;28;20043;-72
2022/07/15 01:23:29;;;;;;;2.90;1.50;;;17.40;61.60;;;;;;5098432;28;20024;-72
2022/07/15 01:25:55;;;;;;;7.22;1.95;;;17.30;61.70;;;;;;5098529;28;20028;-72
2022/07/15 01:28:21;;;;;;;3.75;1.77;;;17.20;62.00;;;;;;5116284;28;20024;-72
2022/07/15 01:30:47;;;;;;;5.15;1.70;;;17.20;62.10;;;;;;5116293;28;20016;-72
2022/07/15 01:33:13;;;;;;;2.10;1.45;;;17.20;61.90;;;;;;5098358;28;20043;-72
2022/07/15 01:35:39;;;;;;;3.55;1.70;;;17.10;61.80;;;;;;5116337;28;20032;-72
2022/07/15 01:38:05;;;;;;;6.55;1.85;;;17.10;62.10;;;;;;5098263;28;20047;-72
2022/07/15 01:40:30;;;;;;;5.47;1.80;;;17.10;62.30;;;;;;5098174;28;20525;-72
2022/07/15 01:42:56;;;;;;;7.30;1.88;;;17.20;62.20;;;;;;5116013;28;20028;-72
2022/07/15 01:45:21;;;;;;;3.88;1.58;;;17.20;62.20;;;;;;5116022;28;20081;-72
2022/07/15 01:47:49;;;;;;;5.22;1.80;;;17.20;62.20;;;;;;5098149;28;20107;-72
2022/07/15 01:50:15;;;;;;;4.70;1.52;;;17.20;62.90;;;;;;5115933;28;20022;-72
2022/07/15 01:52:41;;;;;;;4.45;1.58;;;17.20;62.00;;;;;;5115910;28;20035;-72
2022/07/15 01:55:08;;;;;;;3.80;1.63;;;17.20;62.00;;;;;;5115812;28;20032;-72
2022/07/15 01:57:34;;;;;;;7.30;1.60;;;17.20;62.20;;;;;;5115767;28;20024;-72
2022/07/15 02:00:00;;;;;;;5.60;1.80;;;17.10;62.40;;;;;;5115598;28;20058;-71
2022/07/15 02:02:27;;;;;;;4.38;2.22;;;17.00;62.50;;;;;;5097927;28;20044;-71
2022/07/15 02:04:52;;;;;;;4.88;1.90;;;17.00;62.60;;;;;;5097860;28;20093;-71
2022/07/15 02:07:18;;;;;;;4.05;1.50;;;17.00;62.70;;;;;;5115102;28;20086;-71
2022/07/15 02:09:44;;;;;;;4.63;1.88;;;17.00;62.90;;;;;;5115540;28;20082;-71
2022/07/15 02:12:09;;;;;;;2.90;1.60;;;17.00;62.60;;;;;;5115513;28;20028;-71
2022/07/15 02:14:35;;;;;;;4.32;1.63;;;17.00;63.10;;;;;;5115467;28;20031;-71
2022/07/15 02:17:02;;;;;;;4.55;1.98;;;16.90;62.30;;;;;;5115548;28;20161;-71
2022/07/15 02:19:28;;;;;;;5.63;1.98;;;16.90;62.30;;;;;;5097686;28;20024;-71
2022/07/15 02:21:54;;;;;;;4.03;1.80;;;16.90;62.20;;;;;;5115240;28;20429;-71
2022/07/15 02:24:19;;;;;;;4.18;1.67;;;16.90;62.70;;;;;;5115381;28;20028;-71
2022/07/15 02:26:48;;;;;;;5.82;1.73;;;17.00;62.20;;;;;;5115230;28;20029;-71
2022/07/15 02:29:15;;;;;;;3.45;1.35;;;16.80;62.10;;;;;;5115066;28;20032;-71
2022/07/15 02:31:41;;;;;;;6.00;2.10;;;16.80;62.10;;;;;;5115266;28;20024;-71
2022/07/15 02:34:07;;;;;;;2.85;1.73;;;16.70;62.30;;;;;;5115110;28;20024;-71
2022/07/15 02:36:33;;;;;;;3.40;1.50;;;16.60;62.80;;;;;;5097137;28;20034;-71
2022/07/15 02:38:58;;;;;;;4.93;1.70;;;16.60;62.70;;;;;;5114985;28;20028;-71
2022/07/15 02:41:24;;;;;;;3.90;1.73;;;16.60;62.80;;;;;;5114870;28;20091;-71
2022/07/15 02:43:50;;;;;;;5.82;2.25;;;16.60;63.70;;;;;;5096961;28;20053;-71
2022/07/15 02:46:17;;;;;;;5.70;1.92;;;16.60;63.30;;;;;;5114836;28;20077;-71
2022/07/15 02:48:42;;;;;;;5.00;2.10;;;16.60;63.40;;;;;;5114823;28;20028;-71
2022/07/15 02:51:09;;;;;;;9.82;2.00;;;16.60;63.30;;;;;;5114736;28;20024;-71
2022/07/15 02:53:35;;;;;;;4.85;1.80;;;16.60;63.50;;;;;;5114677;28;20027;-71
2022/07/15 02:56:01;;;;;;;2.85;1.45;;;16.60;63.60;;;;;;5114789;28;20028;-71
2022/07/15 02:58:29;;;;;;;4.10;1.70;;;16.50;63.20;;;;;;5114544;28;20051;-71
2022/07/15 03:00:54;;;;;;;5.68;1.60;;;16.50;63.20;;;;;;5114271;28;20062;-71
2022/07/15 03:03:20;;;;;;;6.43;1.83;;;16.50;63.40;;;;;;5114539;28;20028;-71
2022/07/15 03:05:46;;;;;;;3.40;1.92;;;16.50;63.60;;;;;;5096608;28;20020;-71
2022/07/15 03:08:12;;;;;;;4.43;1.67;;;16.50;63.70;;;;;;5114416;28;20057;-71
2022/07/15 03:10:38;;;;;;;4.05;1.60;;;16.50;63.60;;;;;;5114375;28;20020;-71
2022/07/15 03:13:03;;;;;;;6.40;2.13;;;16.40;63.80;;;;;;5114338;28;20052;-71
2022/07/15 03:15:29;;;;;;;5.68;1.52;;;16.30;63.70;;;;;;5114301;28;20028;-71
2022/07/15 03:17:55;;;;;;;5.90;1.80;;;16.30;63.30;;;;;;5095573;28;20016;-71
2022/07/15 03:20:21;;;;;;;4.65;2.08;;;16.20;63.40;;;;;;5114224;28;20032;-72
2022/07/15 03:22:47;;;;;;;3.38;1.85;;;16.10;63.40;;;;;;5096310;28;20035;-71
2022/07/15 03:25:12;;;;;;;4.18;1.83;;;16.20;63.70;;;;;;5096134;28;20083;-71
2022/07/15 03:27:38;;;;;;;3.72;1.90;;;16.20;63.90;;;;;;5114102;28;20039;-71
2022/07/15 03:30:04;;;;;;;5.50;1.92;;;16.00;64.10;;;;;;5096086;28;20054;-71
2022/07/15 03:32:30;;;;;;;4.47;2.05;;;16.00;64.40;;;;;;5114010;28;20044;-71
2022/07/15 03:34:58;;;;;;;4.13;1.77;;;15.90;64.10;;;;;;5113968;28;20028;-71
2022/07/15 03:37:25;;;;;;;4.85;2.00;;;15.80;64.00;;;;;;5113876;28;20031;-71
2022/07/15 03:39:51;;;;;;;3.83;1.73;;;15.70;64.10;;;;;;5113849;28;20016;-72
2022/07/15 03:42:16;;;;;;;7.32;1.88;;;15.80;64.90;;;;;;5113767;28;20056;-71
2022/07/15 03:44:42;;;;;;;7.95;2.15;;;15.70;64.50;;;;;;5113812;28;20028;-71
2022/07/15 03:47:07;;;;;;;6.57;1.85;;;15.60;65.30;;;;;;5113780;28;20024;-72
2022/07/15 03:49:33;;;;;;;3.65;2.05;;;15.60;65.70;;;;;;5113745;28;20087;-72
2022/07/15 03:51:59;;;;;;;5.78;2.42;;;15.70;65.90;;;;;;5095850;28;20042;-71
2022/07/15 03:54:24;;;;;;;6.93;1.98;;;15.80;66.40;;;;;;5113684;28;20032;-71
2022/07/15 03:56:50;;;;;;;5.25;2.10;;;15.80;66.30;;;;;;5113654;28;20032;-71
2022/07/15 03:59:17;;;;;;;6.75;2.17;;;15.90;66.30;;;;;;5113637;28;20028;-71
2022/07/15 04:01:43;;;;;;;5.80;2.42;;;15.70;66.70;;;;;;5113328;28;20044;-71
2022/07/15 04:04:09;;;;;;;7.18;2.47;;;15.70;67.80;;;;;;5113562;28;20062;-71
2022/07/15 04:06:35;;;;;;;3.75;2.60;;;15.80;68.10;;;;;;5113546;28;20111;-71
2022/07/15 04:09:01;;;;;;;6.13;2.40;;;15.70;67.80;;;;;;5113532;28;20046;-71
2022/07/15 04:11:26;;;;;;;5.57;2.42;;;15.60;68.20;;;;;;5095658;28;20386;-71
2022/07/15 04:13:52;;;;;;;5.18;2.65;;;15.60;69.10;;;;;;5113505;28;20032;-70
2022/07/15 04:16:18;;;;;;;8.63;2.50;;;15.70;68.30;;;;;;5113429;28;20036;-71
2022/07/15 04:18:43;;;;;;;3.33;2.22;;;15.60;68.70;;;;;;5113425;28;20047;-71
2022/07/15 04:21:09;;;;;;;6.40;2.65;;;15.50;69.20;;;;;;5113351;28;20024;-71
2022/07/15 04:23:35;;;;;;;8.13;2.72;;;15.60;69.10;;;;;;5095558;28;20391;-71
2022/07/15 04:26:01;;;;;;;4.18;2.72;;;15.60;68.90;;;;;;5113390;28;20042;-71
2022/07/15 04:28:27;;;;;;;5.47;3.00;;;15.80;68.70;;;;;;5113469;28;20024;-71
2022/07/15 04:30:53;;;;;;;6.43;3.30;;;15.80;68.60;;;;;;5117468;28;20108;-71
2022/07/15 04:33:19;;;;;;;7.22;3.13;;;15.80;68.50;;;;;;5117443;28;20020;-71
2022/07/15 04:35:46;;;;;;;6.38;2.83;;;15.90;68.30;;;;;;5117405;28;20038;-71
2022/07/15 04:38:12;;;;;;;7.68;3.40;;;15.90;68.40;;;;;;5117343;28;20020;-71
2022/07/15 04:40:39;;;;;;;6.97;3.05;;;15.90;68.50;;;;;;5117325;28;20085;-71
2022/07/15 04:43:05;;;;;;;6.75;3.17;;;15.70;68.90;;;;;;5117139;28;20025;-71
2022/07/15 04:45:31;;;;;;;4.70;2.85;;;15.80;69.20;;;;;;5117157;28;20017;-70
2022/07/15 04:47:57;;;;;;;6.80;3.10;;;15.70;69.60;;;;;;5117141;28;20040;-70
2022/07/15 04:53:07;;;;;;;6.13;3.00;;;15.70;70.00;;;;;;5117181;28;20130;-70
2022/07/15 04:55:33;;;;;;;6.60;2.95;;;15.70;70.40;;;;;;5117000;28;20036;-70
2022/07/15 04:57:59;;;;;;;7.72;3.15;;;15.80;70.20;;;;;;5099091;28;20107;-70
2022/07/15 05:00:24;;;;;;;8.98;3.50;;;15.80;70.40;;;;;;5098770;28;20040;-71
2022/07/15 05:02:50;;;;;;;7.18;3.13;;;15.90;70.50;;;;;;5116784;28;20042;-71
2022/07/15 05:05:16;;;;;;;5.10;2.88;;;15.90;70.80;;;;;;5116805;28;20035;-71
2022/07/15 05:07:42;;;;;;;5.38;2.95;;;15.90;71.10;;;;;;5116778;28;20016;-71
2022/07/15 05:10:09;;;;;;;5.40;2.78;;;16.00;72.10;;;;;;5116712;28;20054;-70
2022/07/15 05:12:35;;;;;;;6.47;2.70;;;16.10;71.20;;;;;;5098873;28;20047;-71
2022/07/15 05:15:01;;;;;;;7.38;2.78;;;16.10;71.20;;;;;;5116654;28;20059;-70
2022/07/15 05:17:27;;;;;;;6.28;2.95;;;16.20;72.10;;;;;;5116603;28;20027;-70
2022/07/15 05:19:53;;;;;;;7.20;2.72;;;16.30;71.10;;;;;;5116534;28;20024;-70
2022/07/15 05:22:19;;;;;;;5.15;2.85;;;16.40;70.90;;;;;;5098534;28;20024;-70
2022/07/15 05:24:45;;;;;;;7.85;2.75;;;16.50;70.50;;;;;;5116432;28;20028;-70
2022/07/15 05:27:11;;;;;;;7.68;2.65;;;16.60;70.20;;;;;;5116373;28;20012;-70
2022/07/15 05:29:37;;;;;;;5.30;2.65;;;16.70;69.90;;;;;;5116313;28;20042;-70
2022/07/15 05:32:03;;;;;;;5.38;2.55;;;16.80;69.60;;;;;;5116321;28;20423;-70
2022/07/15 05:34:28;;;;;;;9.35;2.78;;;16.90;69.10;;;;;;5116237;28;20032;-71
2022/07/15 05:36:54;;;;;;;5.53;2.03;;;16.90;68.60;;;;;;5116205;28;20044;-71
2022/07/15 05:39:19;;;;;;;5.30;2.22;;;16.90;68.60;;;;;;5116179;28;20021;-71
2022/07/15 05:41:45;;;;;;;7.20;2.03;;;17.00;68.50;;;;;;5115114;28;20087;-71
2022/07/15 05:44:11;;;;;;;4.47;1.83;;;17.00;68.50;;;;;;5116051;28;20025;-70
2022/07/15 05:46:37;;;;;;;6.75;2.28;;;17.10;68.20;;;;;;5116029;28;20050;-71
2022/07/15 05:49:02;;;;;;;5.80;1.70;;;17.20;68.00;;;;;;5116021;28;20043;-71
2022/07/15 05:51:28;;;;;;;3.83;1.40;;;17.30;67.60;;;;;;5115922;28;20490;-71
2022/07/15 05:53:54;;;;;;;7.50;1.50;;;17.30;67.20;;;;;;5116017;28;20039;-71
2022/07/15 05:56:20;;;;;;;3.85;1.50;;;17.40;66.80;;;;;;5115841;28;20024;-71
2022/07/15 05:58:45;;;;;;;4.43;1.42;;;17.40;66.40;;;;;;5115766;28;20055;-71
2022/07/15 06:01:11;;;;;;;5.30;1.40;;;17.50;66.30;;;;;;5115526;28;20044;-71
2022/07/15 06:03:37;;;;;;;4.50;1.63;;;17.50;66.20;;;;;;5115685;28;20020;-71
2022/07/15 06:06:04;;;;;;;4.50;1.30;;;17.60;65.90;;;;;;5115651;28;20743;-71
2022/07/15 06:08:30;;;;;;;7.45;2.15;;;17.60;65.50;;;;;;5115765;28;20039;-71
2022/07/15 06:10:56;;;;;;;4.10;1.00;;;17.70;65.40;;;;;;5115560;28;20024;-71
2022/07/15 06:13:22;;;;;;;3.28;0.95;;;17.70;65.10;;;;;;5115501;28;20016;-70
2022/07/15 06:15:48;;;;;;;4.90;1.50;;;17.70;65.20;;;;;;5115456;28;20024;-71
2022/07/15 06:18:14;;;;;;;2.75;0.98;;;17.70;65.00;;;;;;5115585;28;20058;-71
2022/07/15 06:20:39;;;;;;;4.82;1.00;;;17.80;64.70;;;;;;5115332;28;20024;-71
2022/07/15 06:23:05;;;;;;;3.95;1.05;;;17.90;64.60;;;;;;5115231;28;20059;-71
2022/07/15 06:25:31;;;;;;;4.93;1.23;;;17.90;64.60;;;;;;5115372;28;20035;-71
2022/07/15 06:27:56;;;;;;;5.75;1.25;;;18.00;64.70;;;;;;5115179;28;20028;-71
2022/07/15 06:30:22;;;;;;;4.40;1.13;;;18.00;64.50;;;;;;5097246;28;20032;-71
2022/07/15 06:32:48;;;;;;;3.20;0.82;;;18.00;64.50;;;;;;5115096;28;20048;-71
2022/07/15 06:35:13;;;;;;;4.22;1.02;;;18.00;64.50;;;;;;5115076;28;20040;-71
2022/07/15 06:37:39;;;;;;;8.80;1.00;;;18.10;64.20;;;;;;5115152;28;20040;-71
2022/07/15 06:40:06;;;;;;;5.15;2.13;;;18.20;64.00;;;;;;5114955;28;20016;-70
2022/07/15 06:42:31;;;;;;;2.20;1.27;;;18.20;64.10;;;;;;5114788;28;20032;-71
2022/07/15 06:44:57;;;;;;;5.93;1.38;;;18.20;63.70;;;;;;5115021;28;20049;-71
2022/07/15 06:47:23;;;;;;;2.67;1.20;;;18.30;63.70;;;;;;5096978;28;20040;-71
2022/07/15 06:49:49;;;;;;;5.07;1.40;;;18.30;63.50;;;;;;5114946;28;20020;-71
2022/07/15 06:52:16;;;;;;;3.72;1.60;;;18.30;63.40;;;;;;5114716;28;20020;-71
2022/07/15 06:54:41;;;;;;;5.00;1.42;;;18.40;63.30;;;;;;5096959;28;20024;-71
2022/07/15 06:57:07;;;;;;;2.85;1.15;;;18.40;62.90;;;;;;5114703;28;20040;-71
2022/07/15 06:59:33;;;;;;;4.20;1.70;;;18.40;62.80;;;;;;5114439;28;20158;-71
2022/07/15 07:01:59;;;;;;;6.38;1.55;;;18.50;62.80;;;;;;5114353;28;20048;-71
2022/07/15 07:04:24;;;;;;;4.75;1.65;;;18.50;63.00;;;;;;5114518;28;20088;-71
2022/07/15 07:06:50;;;;;;;5.45;1.85;;;18.60;63.10;;;;;;5114469;28;20024;-71
2022/07/15 07:09:15;;;;;;;3.03;1.50;;;18.60;62.90;;;;;;5114449;28;20078;-71
2022/07/15 07:11:41;;;;;;;5.85;1.30;;;18.60;63.50;;;;;;5114353;28;20036;-71
2022/07/15 07:14:07;;;;;;;3.90;1.35;;;18.70;62.40;;;;;;5114508;28;20028;-71
2022/07/15 07:16:33;;;;;;;3.70;1.08;;;18.70;62.20;;;;;;5114271;28;20035;-71
2022/07/15 07:18:59;;;;;;;3.65;1.10;;;18.70;62.30;;;;;;5114382;28;20076;-71
2022/07/15 07:21:24;;;;;;;7.70;1.40;;;18.70;62.60;;;;;;5114116;28;20028;-71
2022/07/15 07:23:50;;;;;;;4.60;1.35;;;18.80;62.40;;;;;;5114140;28;20024;-71
2022/07/15 07:26:17;;;;;;;6.20;1.40;;;18.80;62.00;;;;;;5114112;28;20088;-71
2022/07/15 07:28:43;;;;;;;5.40;1.60;;;18.80;62.60;;;;;;5113997;28;20030;-72
2022/07/15 07:31:10;;;;;;;5.53;1.38;;;18.90;62.80;;;;;;5114074;28;20025;-72
2022/07/15 07:33:36;;;;;;;2.00;0.68;;;18.90;62.50;;;;;;5114161;28;20045;-72
2022/07/15 07:36:04;;;;;;;4.88;1.02;;;19.00;61.70;;;;;;5114015;28;20020;-72
2022/07/15 07:38:31;;;;;;;2.47;0.85;;;19.00;61.40;;;;;;5113923;28;20042;-72
2022/07/15 07:40:57;;;;;;;3.45;0.88;;;19.00;60.90;;;;;;5113843;28;20016;-72
2022/07/15 07:43:23;;;;;;;3.30;1.00;;;19.10;60.50;;;;;;5113880;28;20032;-72
2022/07/15 07:45:50;;;;;;;2.22;0.70;;;19.20;60.20;;;;;;5095865;28;20091;-72
2022/07/15 07:48:19;;;;;;;2.67;0.80;;;19.30;59.80;;;;;;5113766;28;20042;-72
2022/07/15 07:50:45;;;;;;;5.13;1.10;;;19.30;59.40;;;;;;5113734;28;20036;-72
2022/07/15 07:53:11;;;;;;;3.80;0.98;;;19.40;58.90;;;;;;5113747;28;20054;-72
2022/07/15 07:55:38;;;;;;;5.90;1.02;;;19.40;58.80;;;;;;5113708;28;20028;-72
2022/07/15 07:58:04;;;;;;;4.43;1.35;;;19.40;58.70;;;;;;5113685;28;20031;-72
2022/07/15 08:00:30;;;;;;;5.38;1.38;;;19.50;58.40;;;;;;5113458;28;20067;-72
2022/07/15 08:02:58;;;;;;;2.75;0.77;;;19.50;58.40;;;;;;5113474;28;20028;-72
2022/07/15 08:05:24;;;;;;;3.35;1.02;;;19.40;58.50;;;;;;5113188;28;20092;-72
2022/07/15 08:07:50;;;;;;;3.92;0.80;;;19.40;58.40;;;;;;5113536;28;20024;-72
2022/07/15 08:10:19;;;;;;;8.10;1.17;;;19.40;58.50;;;;;;5095755;28;20188;-72
2022/07/15 08:12:45;;;;;;;5.57;1.23;;;19.40;58.40;;;;;;5113451;28;20025;-71
2022/07/15 08:15:12;;;;;;;2.58;0.80;;;19.40;58.90;;;;;;5113506;28;20028;-72
2022/07/15 08:17:39;;;;;;;2.97;0.93;;;19.50;58.40;;;;;;5113450;28;20027;-72
2022/07/15 08:20:10;;;;;;;4.53;1.13;;;19.60;58.60;;;;;;5113492;28;20027;-72
2022/07/15 08:22:36;;;;;;;5.53;1.13;;;19.70;58.30;;;;;;5113397;28;20028;-71
2022/07/15 08:25:02;;;;;;;8.13;1.17;;;19.70;57.20;;;;;;5113378;28;20020;-72
2022/07/15 08:27:29;;;;;;;2.70;0.80;;;19.70;56.70;;;;;;5113378;28;20086;-72
2022/07/15 08:29:55;;;;;;;12.75;1.50;;;19.80;56.60;;;;;;5113284;28;20020;-71
2022/07/15 08:32:21;;;;;;;10.00;1.40;;;19.80;56.60;;;;;;5113302;28;20109;-71
2022/07/15 08:34:47;;;;;;;9.13;1.25;;;19.90;56.40;;;;;;5113319;28;20032;-72
2022/07/15 08:37:13;;;;;;;1.95;0.90;;;20.00;56.10;;;;;;5113294;28;20039;-71
2022/07/15 08:39:39;;;;;;;2.22;1.00;;;20.00;56.70;;;;;;5113254;28;20540;-71
2022/07/15 08:42:05;;;;;;;3.17;0.77;;;20.10;55.70;;;;;;5113169;28;20033;-72
2022/07/15 08:44:31;;;;;;;4.30;0.90;;;20.20;55.40;;;;;;5113230;28;20436;-71
2022/07/15 08:47:05;;;;;;;2.63;1.00;;;20.30;55.60;;;;;;5113173;28;20080;-71
2022/07/15 08:49:32;;;;;;;3.85;1.00;;;20.30;54.90;;;;;;5113183;28;20013;-72
2022/07/15 08:52:00;;;;;;;4.35;0.88;;;20.30;54.60;;;;;;5095182;28;20024;-71
2022/07/15 08:54:28;;;;;;;2.20;1.00;;;20.20;53.60;;;;;;5113104;28;20020;-71
2022/07/15 08:56:54;;;;;;;3.45;0.93;;;20.30;54.60;;;;;;5113101;28;20035;-71
2022/07/15 08:59:19;;;;;;;3.22;0.80;;;20.30;55.10;;;;;;5113066;28;20028;-72
2022/07/15 09:01:47;;;;;;;4.40;0.80;;;20.40;54.90;;;;;;5112839;28;20068;-71
2022/07/15 09:04:13;;;;;;;3.08;0.90;;;20.60;54.70;;;;;;5112988;28;20016;-71
2022/07/15 09:06:45;;;;;;;4.05;1.23;;;20.60;53.70;;;;;;5113003;28;20047;-71
2022/07/15 09:09:30;;;;;;;1.77;0.75;;;20.70;53.80;;;;;;5113239;28;20104;-71
2022/07/15 09:12:00;;;;;;;2.65;0.63;;;20.60;53.70;;;;;;5112980;28;20020;-72
2022/07/15 09:14:30;;;;;;;4.75;1.00;;;20.60;53.80;;;;;;5113222;28;20031;-72
2022/07/15 09:17:09;;;;;;;5.10;0.88;;;20.60;53.50;;;;;;5097346;28;20028;-71
2022/07/15 09:20:00;;;;;;;2.63;0.90;;;20.50;52.20;;;;;;5116661;28;20490;-72
2022/07/15 09:22:31;;;;;;;3.63;1.05;;;20.60;53.00;;;;;;5116615;28;20469;-71
2022/07/15 09:25:04;;;;;;;3.90;0.80;;;20.70;53.50;;;;;;5116549;28;20016;-71
2022/07/15 09:27:32;;;;;;;3.00;0.85;;;20.70;52.20;;;;;;5116472;28;20254;-71
2022/07/15 09:36:01;;;;;;;3.50;0.60;;;20.70;52.60;;;;;;5101671;28;20114;-71
2022/07/15 09:38:52;;;;;;;2.08;0.60;;;20.80;51.80;;;;;;5116406;28;20050;-71
2022/07/15 09:41:31;;;;;;;1.20;0.50;;;20.90;52.10;;;;;;5102656;28;20040;-71
2022/07/15 09:44:05;;;;;;;3.22;0.90;;;21.10;50.00;;;;;;5116238;28;20506;-71
2022/07/15 09:46:47;;;;;;;1.65;0.60;;;21.20;49.80;;;;;;5116094;28;20062;-71
2022/07/15 09:49:24;;;;;;;4.00;0.68;;;21.40;48.70;;;;;;5116004;28;20020;-71
2022/07/15 09:52:08;;;;;;;4.95;0.90;;;21.40;48.70;;;;;;5116015;28;20051;-71
2022/07/15 09:54:36;;;;;;;4.78;1.00;;;21.40;48.20;;;;;;5081176;28;20031;-71
2022/07/15 09:57:05;;;;;;;3.20;0.70;;;21.30;49.10;;;;;;5115900;28;20028;-71
2022/07/15 09:59:31;;;;;;;3.75;0.68;;;21.40;49.40;;;;;;5115804;28;20024;-71
2022/07/15 10:01:59;;;;;;;4.22;0.88;;;21.50;49.30;;;;;;5115553;28;20040;-71
2022/07/15 10:04:27;;;;;;;3.47;0.50;;;21.60;48.10;;;;;;5081280;28;20021;-71
2022/07/15 10:06:58;;;;;;;0.77;0.40;;;21.70;47.70;;;;;;5097855;28;20027;-71
2022/07/15 10:09:29;;;;;;;3.35;0.70;;;21.80;46.40;;;;;;5115759;28;20024;-71
2022/07/15 10:12:00;;;;;;;3.20;0.98;;;21.90;47.00;;;;;;5115588;28;20028;-71
2022/07/15 10:15:03;;;;;;;2.95;0.60;;;21.90;44.80;;;;;;5115554;28;20020;-71
2022/07/15 10:17:50;;;;;;;2.90;0.52;;;21.70;45.60;;;;;;5115580;28;20024;-71
2022/07/15 10:20:37;;;;;;;3.90;0.80;;;21.80;45.30;;;;;;5115582;28;20020;-71
2022/07/15 10:23:24;;;;;;;4.57;0.70;;;21.80;45.20;;;;;;5115327;28;20023;-71
2022/07/15 10:26:14;;;;;;;1.65;0.50;;;21.80;45.40;;;;;;5115351;28;20020;-70
2022/07/15 10:29:01;;;;;;;2.50;0.60;;;21.90;44.90;;;;;;5115147;28;20016;-70
2022/07/15 10:31:29;;;;;;;0.90;0.30;;;22.00;45.10;;;;;;5115198;28;20035;-71
2022/07/15 10:34:07;;;;;;;2.05;0.43;;;22.10;42.30;;;;;;5115095;28;20035;-71
2022/07/15 10:36:53;;;;;;;1.20;0.40;;;22.20;43.30;;;;;;5115109;28;20035;-71
2022/07/15 10:39:22;;;;;;;2.58;0.47;;;22.30;43.90;;;;;;5115214;28;20020;-70
2022/07/15 10:41:58;;;;;;;1.50;0.50;;;22.40;44.10;;;;;;5114938;28;20039;-70
2022/07/15 10:44:26;;;;;;;1.65;0.57;;;22.40;44.40;;;;;;5114992;28;20024;-70
2022/07/15 10:47:19;;;;;;;2.20;0.60;;;22.30;43.70;;;;;;5114921;28;20020;-70
2022/07/15 10:49:47;;;;;;;3.58;0.50;;;22.20;43.30;;;;;;5110978;28;20036;-71
2022/07/15 10:52:18;;;;;;;1.48;0.32;;;22.20;44.70;;;;;;5114801;28;20089;-71
2022/07/15 10:54:54;;;;;;;3.33;0.70;;;22.10;43.30;;;;;;5114737;28;20032;-70
2022/07/15 10:57:20;;;;;;;1.95;0.43;;;22.20;44.50;;;;;;5114875;28;20522;-70
2022/07/15 11:00:04;;;;;;;2.00;0.40;;;22.20;43.80;;;;;;5114409;28;20028;-71
2022/07/15 11:02:32;;;;;;;1.38;0.38;;;22.20;43.20;;;;;;5114731;28;20036;-70
2022/07/15 11:05:19;;;;;;;2.67;0.50;;;22.20;42.90;;;;;;5114564;28;20032;-71
2022/07/15 11:07:45;;;;;;;1.52;0.43;;;22.20;43.70;;;;;;5114501;28;20028;-70
2022/07/15 11:10:10;;;;;;;1.58;0.50;;;22.30;44.10;;;;;;5114589;28;20459;-71
2022/07/15 11:12:36;;;;;;;0.90;0.35;;;22.40;44.10;;;;;;5096452;28;20030;-71
2022/07/15 11:15:16;;;;;;;3.63;0.65;;;22.40;43.40;;;;;;5114374;28;20032;-71
2022/07/15 11:17:46;;;;;;;0.82;0.57;;;22.40;43.00;;;;;;5114392;28;20032;-71
2022/07/15 11:20:19;;;;;;;2.20;0.60;;;22.40;43.10;;;;;;5114242;28;20024;-70
2022/07/15 11:22:53;;;;;;;1.27;0.60;;;22.40;43.00;;;;;;5114183;28;20035;-71
2022/07/15 11:25:37;;;;;;;3.55;0.57;;;22.60;42.90;;;;;;5114130;28;20023;-70
2022/07/15 11:28:14;;;;;;;2.35;0.60;;;22.70;43.10;;;;;;5114300;28;20016;-70
2022/07/15 11:30:48;;;;;;;1.35;0.50;;;22.80;42.70;;;;;;5114080;28;20108;-70
2022/07/15 11:33:15;;;;;;;1.77;0.52;;;22.70;41.40;;;;;;5114134;28;20215;-70
2022/07/15 11:36:01;;;;;;;2.17;0.50;;;22.40;41.20;;;;;;5114027;28;20044;-71
2022/07/15 11:38:30;;;;;;;2.20;1.05;;;22.20;42.00;;;;;;5113322;28;20024;-70
2022/07/15 11:46:45;;;;;;;1.00;0.57;;;22.30;42.70;;;;;;5114117;28;20043;-70
2022/07/15 11:49:10;;;;;;;2.80;0.80;;;22.50;43.20;;;;;;5113880;28;20019;-71
2022/07/15 11:51:36;;;;;;;1.02;0.40;;;22.60;42.10;;;;;;5079071;28;20036;-70
2022/07/15 11:54:02;;;;;;;3.08;0.60;;;22.50;42.50;;;;;;5113732;28;20039;-70
2022/07/15 11:56:28;;;;;;;2.25;0.50;;;22.60;43.60;;;;;;5113662;28;20032;-70
2022/07/15 11:58:56;;;;;;;2.65;0.60;;;22.60;43.30;;;;;;5113773;28;20061;-71
2022/07/15 12:01:28;;;;;;;0.73;0.40;;;22.70;43.60;;;;;;5113397;28;20043;-71
2022/07/15 12:03:55;;;;;;;0.68;0.40;;;22.90;42.60;;;;;;5113690;28;20020;-71
2022/07/15 12:06:22;;;;;;;3.63;0.82;;;23.00;41.90;;;;;;5113599;28;20030;-70
2022/07/15 12:08:56;;;;;;;2.65;0.73;;;23.10;41.80;;;;;;5113590;28;20019;-71
2022/07/15 12:11:26;;;;;;;2.25;0.82;;;23.20;42.50;;;;;;5113594;28;20043;-71
2022/07/15 12:14:01;;;;;;;3.35;0.88;;;23.20;41.00;;;;;;5113525;28;20024;-71
2022/07/15 12:16:32;;;;;;;1.15;0.70;;;23.30;40.80;;;;;;5113664;28;20020;-71
2022/07/15 12:19:04;;;;;;;2.20;0.90;;;23.30;40.90;;;;;;5113448;28;20050;-71
2022/07/15 12:21:30;;;;;;;1.20;0.90;;;23.40;41.10;;;;;;5113580;28;20024;-71
2022/07/15 12:24:08;;;;;;;1.15;0.70;;;23.30;41.10;;;;;;5113416;28;20016;-71
2022/07/15 12:26:41;;;;;;;4.80;0.98;;;23.30;41.20;;;;;;5113395;28;20054;-71
2022/07/15 12:29:10;;;;;;;2.30;0.70;;;23.20;41.00;;;;;;5113391;28;20020;-71
2022/07/15 12:31:37;;;;;;;1.17;0.80;;;23.20;41.90;;;;;;5113333;28;20039;-70
2022/07/15 12:34:03;;;;;;;2.13;0.75;;;23.10;41.80;;;;;;5113288;28;20070;-71
2022/07/15 12:36:32;;;;;;;2.35;0.73;;;23.10;41.80;;;;;;5113317;28;20032;-70
2022/07/15 12:39:12;;;;;;;1.73;0.70;;;23.20;41.40;;;;;;5113279;28;20024;-70
2022/07/15 12:41:41;;;;;;;1.45;0.60;;;23.20;40.80;;;;;;5113180;28;20035;-71
2022/07/15 12:44:07;;;;;;;2.15;0.85;;;23.10;41.10;;;;;;5113249;28;20039;-71
2022/07/15 12:46:56;;;;;;;1.73;0.80;;;23.10;40.90;;;;;;5113213;28;20076;-71
2022/07/15 12:49:44;;;;;;;1.85;0.80;;;23.20;40.80;;;;;;5113375;28;20020;-71
2022/07/15 12:52:29;;;;;;;3.53;0.73;;;23.20;40.30;;;;;;5117112;28;20024;-71
2022/07/15 12:54:55;;;;;;;2.17;0.80;;;23.30;41.50;;;;;;5117102;28;20023;-71
2022/07/15 12:57:35;;;;;;;2.28;0.52;;;23.20;40.50;;;;;;5117048;28;20028;-71
2022/07/15 13:00:15;;;;;;;2.75;0.63;;;23.10;40.40;;;;;;5116870;28;20036;-71
2022/07/15 13:03:06;;;;;;;1.30;0.60;;;23.10;41.60;;;;;;5098855;28;20372;-71
2022/07/15 13:05:41;;;;;;;2.05;0.60;;;23.10;41.50;;;;;;5117061;28;20031;-71
2022/07/15 13:08:18;;;;;;;1.60;0.60;;;23.10;41.10;;;;;;5116833;28;20024;-71